Time;durP1;ratioP1;P1;durP2;ratioP2;P2;SDS_P1;SDS_P2;PMS_P1;PMS_P2;Temp;Humidity;BMP_temperature;BMP_pressure;BME280_temperature;BME280_humidity;BME280_pressure;Samples;Min_cycle;Max_cycle;Signal;HPM_P1;HPM_P2
2022/09/02 00:01:33;;;;;;;3.47;1.65;;;13.90;99.90;;;;;;5039664;28;20049;-71
2022/09/02 00:04:02;;;;;;;7.00;1.88;;;13.80;99.90;;;;;;5035372;28;20073;-71
2022/09/02 00:06:30;;;;;;;2.22;1.25;;;13.80;99.90;;;;;;5035567;28;20124;-71
2022/09/02 00:08:56;;;;;;;2.65;1.50;;;13.80;99.90;;;;;;5023153;28;20512;-71
2022/09/02 00:11:26;;;;;;;3.90;1.73;;;13.70;99.90;;;;;;5035263;28;20124;-71
2022/09/02 00:13:52;;;;;;;6.43;1.70;;;13.70;99.90;;;;;;5021973;28;20060;-71
2022/09/02 00:16:18;;;;;;;1.80;1.20;;;13.70;99.90;;;;;;5038394;28;20053;-71
2022/09/02 00:18:44;;;;;;;2.22;1.23;;;13.60;99.90;;;;;;5047955;28;20053;-71
2022/09/02 00:21:12;;;;;;;3.55;1.58;;;13.60;99.90;;;;;;5036502;28;20033;-71
2022/09/02 00:23:38;;;;;;;3.22;1.40;;;13.60;99.90;;;;;;5048538;28;20084;-71
2022/09/02 00:26:05;;;;;;;3.28;1.70;;;13.50;99.90;;;;;;5035125;28;20159;-71
2022/09/02 00:28:30;;;;;;;2.67;1.40;;;13.50;99.90;;;;;;5034889;28;20045;-71
2022/09/02 00:30:56;;;;;;;3.58;1.27;;;13.50;99.90;;;;;;5028740;28;20045;-71
2022/09/02 00:33:22;;;;;;;4.18;1.20;;;13.40;99.90;;;;;;5035106;28;20059;-71
2022/09/02 00:35:49;;;;;;;2.60;1.33;;;13.40;99.90;;;;;;5042886;28;20457;-71
2022/09/02 00:38:15;;;;;;;2.72;1.50;;;13.40;99.90;;;;;;5054773;28;20063;-71
2022/09/02 00:40:48;;;;;;;4.63;1.80;;;13.40;99.90;;;;;;5055218;28;20038;-71
2022/09/02 00:43:25;;;;;;;3.22;1.70;;;13.40;99.90;;;;;;5034854;28;20115;-71
2022/09/02 00:45:52;;;;;;;2.97;1.60;;;13.30;99.90;;;;;;5034873;28;20045;-71
2022/09/02 00:48:18;;;;;;;4.38;1.33;;;13.30;99.90;;;;;;5034666;28;20052;-71
2022/09/02 00:50:43;;;;;;;5.47;1.48;;;13.30;99.90;;;;;;5044386;28;20045;-71
2022/09/02 00:53:12;;;;;;;3.50;1.65;;;13.40;99.90;;;;;;5035547;28;20068;-72
2022/09/02 00:55:43;;;;;;;4.22;1.67;;;13.30;99.90;;;;;;5034358;28;20500;-72
2022/09/02 00:58:23;;;;;;;3.78;1.55;;;13.20;99.90;;;;;;5047778;28;20045;-71
2022/09/02 01:00:55;;;;;;;3.40;1.73;;;13.30;99.90;;;;;;5034594;28;20335;-70
2022/09/02 01:03:22;;;;;;;4.00;1.60;;;13.20;99.90;;;;;;5034638;28;20107;-71
2022/09/02 01:05:51;;;;;;;2.25;1.42;;;13.20;99.90;;;;;;5042799;28;20041;-71
2022/09/02 01:08:21;;;;;;;2.38;1.40;;;13.20;99.90;;;;;;5027665;28;20118;-70
2022/09/02 01:10:48;;;;;;;5.90;1.52;;;13.10;99.90;;;;;;5034523;28;20038;-71
2022/09/02 01:13:18;;;;;;;2.45;1.50;;;13.10;99.90;;;;;;5034827;28;20037;-71
2022/09/02 01:15:47;;;;;;;6.97;1.90;;;13.10;99.90;;;;;;5022727;28;20461;-71
2022/09/02 01:18:17;;;;;;;6.97;1.70;;;13.10;99.90;;;;;;5038793;28;20123;-70
2022/09/02 01:20:43;;;;;;;5.15;1.65;;;13.00;99.90;;;;;;5012292;28;20366;-71
2022/09/02 01:23:10;;;;;;;5.80;1.90;;;13.00;99.90;;;;;;5057948;28;20041;-71
2022/09/02 01:25:35;;;;;;;3.30;1.58;;;13.10;99.90;;;;;;5038842;28;20059;-71
2022/09/02 01:28:07;;;;;;;3.72;1.67;;;13.00;99.90;;;;;;5038765;28;20136;-71
2022/09/02 01:30:36;;;;;;;4.38;1.60;;;13.00;99.90;;;;;;5038431;28;20435;-71
2022/09/02 01:33:02;;;;;;;6.00;1.75;;;12.90;99.90;;;;;;5038083;28;20096;-71
2022/09/02 01:35:28;;;;;;;2.70;1.45;;;12.90;99.90;;;;;;5034053;28;20084;-70
2022/09/02 01:37:56;;;;;;;2.92;1.60;;;12.90;99.90;;;;;;5049618;28;20106;-71
2022/09/02 01:40:23;;;;;;;5.20;1.80;;;12.90;99.90;;;;;;5050935;28;20359;-71
2022/09/02 01:42:54;;;;;;;5.28;1.85;;;12.90;99.90;;;;;;5038090;28;20103;-71
2022/09/02 01:45:20;;;;;;;6.82;1.63;;;12.80;99.90;;;;;;5037771;28;20107;-71
2022/09/02 01:47:47;;;;;;;2.80;1.35;;;12.80;99.90;;;;;;5037650;28;20033;-71
2022/09/02 01:50:12;;;;;;;2.47;1.52;;;12.80;99.90;;;;;;5037697;28;20133;-71
2022/09/02 01:52:38;;;;;;;2.15;1.30;;;12.70;99.90;;;;;;5047919;28;20115;-73
2022/09/02 01:55:04;;;;;;;4.88;1.45;;;12.90;99.90;;;;;;5045662;28;20048;-73
2022/09/02 01:57:30;;;;;;;4.13;1.35;;;12.70;99.90;;;;;;5037984;28;20091;-74
2022/09/02 01:59:55;;;;;;;2.45;1.63;;;12.70;99.90;;;;;;5037907;28;20473;-74
2022/09/02 02:02:22;;;;;;;3.38;1.70;;;12.60;99.90;;;;;;5037595;28;20057;-73
2022/09/02 02:04:49;;;;;;;5.90;1.50;;;12.50;99.90;;;;;;5037753;28;20055;-73
2022/09/02 02:07:17;;;;;;;4.82;1.77;;;12.50;99.90;;;;;;5024819;28;20057;-74
2022/09/02 02:09:43;;;;;;;2.65;1.60;;;12.50;99.90;;;;;;5043783;28;20056;-73
2022/09/02 02:12:09;;;;;;;3.50;1.83;;;12.50;99.90;;;;;;5037507;28;20041;-73
2022/09/02 02:14:35;;;;;;;2.72;1.60;;;12.50;99.90;;;;;;5031484;28;20480;-73
2022/09/02 02:17:01;;;;;;;4.47;1.88;;;12.50;99.90;;;;;;5037475;28;20444;-73
2022/09/02 02:19:27;;;;;;;5.70;1.60;;;12.50;99.90;;;;;;5037419;28;20041;-73
2022/09/02 02:21:53;;;;;;;2.58;1.63;;;12.50;99.90;;;;;;5037710;28;20041;-74
2022/09/02 02:24:18;;;;;;;2.17;1.38;;;12.40;99.90;;;;;;5042709;28;20046;-73
2022/09/02 02:26:45;;;;;;;3.15;1.83;;;12.40;99.90;;;;;;5036233;28;20069;-73
2022/09/02 02:29:12;;;;;;;5.22;1.75;;;12.40;99.90;;;;;;5037438;28;20121;-73
2022/09/02 02:31:38;;;;;;;4.70;1.52;;;12.40;99.90;;;;;;5037245;28;20345;-73
2022/09/02 02:34:04;;;;;;;3.50;1.88;;;12.40;99.90;;;;;;5037438;28;20049;-74
2022/09/02 02:36:30;;;;;;;5.35;2.08;;;12.30;99.90;;;;;;5036951;28;20533;-73
2022/09/02 02:38:56;;;;;;;2.85;1.65;;;12.30;99.90;;;;;;5063911;28;20488;-72
2022/09/02 02:41:21;;;;;;;4.90;1.80;;;12.30;99.90;;;;;;5045557;28;20041;-73
2022/09/02 02:43:47;;;;;;;3.38;1.75;;;12.20;99.90;;;;;;5037004;28;20053;-73
2022/09/02 02:46:14;;;;;;;2.67;1.48;;;12.20;99.90;;;;;;5037158;28;20331;-73
2022/09/02 02:48:40;;;;;;;3.30;1.65;;;12.20;99.90;;;;;;5036986;28;20045;-73
2022/09/02 02:51:07;;;;;;;3.72;1.70;;;12.20;99.90;;;;;;5036904;28;20052;-73
2022/09/02 02:53:35;;;;;;;7.97;2.15;;;12.20;99.90;;;;;;5038994;28;20088;-73
2022/09/02 02:56:00;;;;;;;3.03;1.63;;;12.20;99.90;;;;;;5056809;28;20187;-73
2022/09/02 02:58:26;;;;;;;2.97;1.67;;;12.10;99.90;;;;;;5047113;28;20124;-73
2022/09/02 03:00:52;;;;;;;5.75;1.60;;;12.10;99.90;;;;;;5036951;28;20049;-73
2022/09/02 03:03:18;;;;;;;5.22;2.35;;;12.10;99.90;;;;;;5037012;28;20410;-72
2022/09/02 03:05:45;;;;;;;7.47;2.00;;;12.10;99.90;;;;;;5036535;28;20446;-73
2022/09/02 03:08:11;;;;;;;5.45;1.67;;;12.10;99.90;;;;;;5037525;28;20147;-73
2022/09/02 03:10:40;;;;;;;2.35;1.65;;;12.10;99.90;;;;;;5047394;28;20055;-73
2022/09/02 03:13:08;;;;;;;2.80;1.70;;;12.10;99.90;;;;;;5036521;28;20041;-73
2022/09/02 03:15:35;;;;;;;2.85;1.55;;;12.00;99.90;;;;;;5036349;28;20128;-73
2022/09/02 03:18:01;;;;;;;3.97;1.90;;;12.00;99.90;;;;;;5036723;28;20149;-73
2022/09/02 03:20:27;;;;;;;3.85;1.65;;;12.00;99.90;;;;;;5021978;28;20128;-74
2022/09/02 03:22:55;;;;;;;6.35;2.05;;;12.00;99.90;;;;;;5019425;28;20059;-73
2022/09/02 03:25:21;;;;;;;3.08;1.88;;;12.00;99.90;;;;;;5045379;28;20117;-73
2022/09/02 03:27:48;;;;;;;2.78;1.60;;;11.90;99.90;;;;;;5036276;28;20148;-73
2022/09/02 03:30:18;;;;;;;2.90;1.67;;;11.90;99.90;;;;;;5036714;28;20041;-72
2022/09/02 03:32:43;;;;;;;3.33;2.10;;;11.90;99.90;;;;;;5036114;28;20111;-73
2022/09/02 03:35:12;;;;;;;3.80;1.90;;;11.80;99.90;;;;;;5035995;28;20053;-73
2022/09/02 03:37:38;;;;;;;8.60;2.13;;;11.80;99.90;;;;;;5043076;28;20048;-73
2022/09/02 03:40:11;;;;;;;3.35;1.98;;;11.80;99.90;;;;;;5069334;28;20045;-73
2022/09/02 03:42:37;;;;;;;4.47;1.83;;;11.80;99.90;;;;;;5043557;28;20143;-73
2022/09/02 03:45:04;;;;;;;2.80;1.80;;;11.70;99.90;;;;;;5035528;28;20835;-73
2022/09/02 03:47:29;;;;;;;3.28;1.70;;;11.70;99.90;;;;;;5035826;28;20045;-73
2022/09/02 03:49:56;;;;;;;4.57;1.95;;;11.60;99.90;;;;;;5035850;28;20038;-73
2022/09/02 03:52:22;;;;;;;3.58;1.90;;;11.60;99.90;;;;;;5035641;28;20072;-73
2022/09/02 03:54:47;;;;;;;3.10;1.80;;;11.60;99.90;;;;;;5039759;28;20041;-73
2022/09/02 03:57:13;;;;;;;5.57;1.98;;;11.60;99.90;;;;;;5042793;28;20056;-73
2022/09/02 03:59:39;;;;;;;5.68;1.90;;;11.60;99.90;;;;;;5035592;28;20049;-73
2022/09/02 04:02:04;;;;;;;4.10;1.80;;;11.60;99.90;;;;;;5035832;28;20042;-73
2022/09/02 04:04:30;;;;;;;5.75;1.95;;;11.50;99.90;;;;;;5035811;28;20091;-73
2022/09/02 04:06:57;;;;;;;2.55;1.60;;;11.50;99.90;;;;;;5035496;28;20377;-73
2022/09/02 04:09:22;;;;;;;3.42;1.50;;;11.40;99.90;;;;;;5038265;28;20055;-74
2022/09/02 04:11:48;;;;;;;3.05;1.80;;;11.50;99.90;;;;;;5043006;28;20049;-73
2022/09/02 04:14:13;;;;;;;4.80;2.08;;;11.40;99.90;;;;;;5035219;28;20049;-73
2022/09/02 04:16:39;;;;;;;3.88;2.00;;;11.30;99.90;;;;;;5035363;28;20050;-73
2022/09/02 04:19:08;;;;;;;4.88;2.20;;;11.30;99.90;;;;;;5036307;28;20370;-71
2022/09/02 04:21:36;;;;;;;5.97;2.47;;;11.20;99.90;;;;;;5015569;28;20049;-72
2022/09/02 04:24:02;;;;;;;3.20;2.00;;;11.30;99.90;;;;;;5047814;28;20066;-73
2022/09/02 04:26:28;;;;;;;4.22;2.10;;;11.30;99.90;;;;;;5054711;28;20036;-73
2022/09/02 04:28:55;;;;;;;4.10;1.77;;;11.20;99.90;;;;;;5055421;28;20120;-72
2022/09/02 04:31:24;;;;;;;2.95;1.90;;;11.20;99.90;;;;;;5054989;28;20124;-72
2022/09/02 04:33:50;;;;;;;2.92;1.92;;;11.30;99.90;;;;;;5055013;28;20081;-72
2022/09/02 04:36:17;;;;;;;2.95;1.98;;;11.20;99.90;;;;;;5055125;28;20094;-72
2022/09/02 04:38:43;;;;;;;4.55;2.55;;;11.20;99.90;;;;;;5054646;28;20064;-72
2022/09/02 04:41:11;;;;;;;4.32;1.83;;;11.20;99.90;;;;;;5055393;28;20053;-73
2022/09/02 04:43:37;;;;;;;3.38;2.10;;;11.20;99.90;;;;;;5055035;28;20099;-72
2022/09/02 04:46:06;;;;;;;4.35;2.38;;;11.20;99.90;;;;;;5054692;28;20449;-73
2022/09/02 04:48:32;;;;;;;2.70;1.90;;;11.20;99.90;;;;;;5054130;28;20457;-72
2022/09/02 04:51:02;;;;;;;3.13;1.98;;;11.20;99.90;;;;;;5054780;28;20043;-72
2022/09/02 04:53:28;;;;;;;3.03;1.90;;;11.20;99.90;;;;;;5055307;28;20511;-72
2022/09/02 04:55:54;;;;;;;5.28;2.45;;;11.20;99.90;;;;;;5054399;28;20045;-69
2022/09/02 04:58:19;;;;;;;3.80;2.35;;;11.20;99.90;;;;;;5053473;28;20041;-71
2022/09/02 05:00:45;;;;;;;5.18;2.42;;;11.30;99.90;;;;;;5054249;28;20049;-71
2022/09/02 05:03:11;;;;;;;10.55;2.63;;;11.20;99.90;;;;;;5054313;28;20053;-72
2022/09/02 05:05:38;;;;;;;6.25;1.90;;;11.20;99.90;;;;;;5052316;28;20059;-71
2022/09/02 05:08:04;;;;;;;3.78;2.08;;;11.20;99.90;;;;;;5054246;28;20056;-71
2022/09/02 05:10:31;;;;;;;4.97;2.17;;;11.20;99.90;;;;;;5055007;28;20370;-72
2022/09/02 05:12:58;;;;;;;3.00;2.00;;;11.30;99.90;;;;;;5054008;28;20049;-71
2022/09/02 05:15:24;;;;;;;6.55;2.03;;;11.20;99.90;;;;;;5057929;28;20098;-71
2022/09/02 05:17:49;;;;;;;4.05;2.40;;;11.30;99.90;;;;;;5053912;28;20051;-72
2022/09/02 05:20:15;;;;;;;3.08;1.95;;;11.30;99.90;;;;;;5054130;28;20041;-72
2022/09/02 05:22:42;;;;;;;6.63;2.20;;;11.40;99.90;;;;;;5054830;28;20389;-72
2022/09/02 05:25:08;;;;;;;7.90;2.63;;;11.40;99.90;;;;;;5053920;28;20488;-72
2022/09/02 05:27:34;;;;;;;4.85;2.60;;;11.40;99.90;;;;;;5054241;28;20059;-72
2022/09/02 05:30:01;;;;;;;3.40;2.13;;;11.40;99.90;;;;;;5053433;28;20423;-71
2022/09/02 05:32:27;;;;;;;7.63;2.88;;;11.40;99.90;;;;;;5026566;28;20033;-71
2022/09/02 05:34:54;;;;;;;5.95;2.92;;;11.50;99.90;;;;;;5054314;28;20052;-71
2022/09/02 05:37:20;;;;;;;3.63;2.28;;;11.50;99.90;;;;;;5043577;28;20053;-74
2022/09/02 05:39:46;;;;;;;6.93;2.50;;;11.50;99.90;;;;;;5037667;28;20111;-72
2022/09/02 05:42:12;;;;;;;4.40;2.25;;;11.50;99.90;;;;;;5033432;28;20111;-71
2022/09/02 05:44:37;;;;;;;2.63;1.75;;;11.60;99.90;;;;;;5036851;28;20377;-72
2022/09/02 05:47:04;;;;;;;3.20;2.15;;;11.60;99.90;;;;;;5053872;28;20448;-74
2022/09/02 05:49:30;;;;;;;3.58;2.28;;;11.60;99.90;;;;;;5036330;28;20045;-71
2022/09/02 05:51:59;;;;;;;4.82;2.45;;;11.60;99.90;;;;;;5039820;28;20095;-74
2022/09/02 05:54:27;;;;;;;4.45;2.50;;;11.70;99.90;;;;;;5034111;28;20421;-73
2022/09/02 05:56:56;;;;;;;4.38;2.10;;;11.70;99.90;;;;;;5049925;28;20041;-72
2022/09/02 05:59:24;;;;;;;5.97;2.42;;;11.80;99.90;;;;;;5054799;28;20115;-73
2022/09/02 06:01:50;;;;;;;4.32;2.78;;;11.90;99.90;;;;;;5057166;28;20461;-72
2022/09/02 06:04:16;;;;;;;3.92;2.45;;;11.90;99.90;;;;;;5057399;28;20083;-73
2022/09/02 06:06:42;;;;;;;5.45;2.58;;;11.90;99.90;;;;;;5057025;28;20151;-72
2022/09/02 06:09:12;;;;;;;3.83;2.30;;;12.10;99.90;;;;;;5055209;28;20045;-74
2022/09/02 06:11:44;;;;;;;6.13;2.88;;;12.40;99.90;;;;;;5051841;28;20069;-74
2022/09/02 06:14:12;;;;;;;4.78;2.40;;;12.80;99.90;;;;;;5056817;28;20052;-69
2022/09/02 06:16:39;;;;;;;4.45;2.40;;;14.00;99.90;;;;;;5056870;28;20099;-71
2022/09/02 06:19:05;;;;;;;3.00;2.03;;;15.40;99.90;;;;;;5037252;28;20053;-67
2022/09/02 06:21:31;;;;;;;4.03;2.00;;;16.80;99.90;;;;;;5052981;28;20130;-71
2022/09/02 06:23:58;;;;;;;3.65;2.08;;;18.00;99.90;;;;;;5034756;28;20041;-72
2022/09/02 06:26:24;;;;;;;2.65;1.85;;;19.00;99.90;;;;;;5051679;28;20076;-69
2022/09/02 06:28:50;;;;;;;5.82;2.08;;;19.60;99.90;;;;;;5038608;28;20081;-72
2022/09/02 06:31:19;;;;;;;4.57;2.17;;;20.20;99.60;;;;;;5056769;28;20088;-70
2022/09/02 06:33:46;;;;;;;6.47;1.95;;;20.90;99.10;;;;;;5056447;28;20456;-75
2022/09/02 06:36:15;;;;;;;5.55;1.85;;;21.50;97.30;;;;;;5056244;28;20053;-74
2022/09/02 06:38:43;;;;;;;3.10;1.83;;;22.20;95.90;;;;;;5056383;28;20060;-73
2022/09/02 06:41:14;;;;;;;3.92;1.80;;;22.00;95.60;;;;;;5056435;28;20456;-73
2022/09/02 06:43:40;;;;;;;2.47;1.65;;;21.70;94.20;;;;;;5056339;28;20041;-73
2022/09/02 06:46:14;;;;;;;4.18;1.73;;;20.50;95.10;;;;;;5056133;28;20049;-73
2022/09/02 06:48:40;;;;;;;4.55;1.70;;;19.60;95.80;;;;;;5056781;28;20040;-75
2022/09/02 06:51:06;;;;;;;4.60;1.60;;;18.70;97.40;;;;;;5056871;28;20040;-74
2022/09/02 06:53:31;;;;;;;3.90;1.80;;;18.20;98.10;;;;;;5056731;28;20457;-77
2022/09/02 06:55:57;;;;;;;3.13;1.67;;;17.80;98.50;;;;;;5039544;28;20041;-74
2022/09/02 06:58:23;;;;;;;4.95;1.55;;;17.40;99.30;;;;;;5039287;28;20098;-72
2022/09/02 07:00:48;;;;;;;4.85;2.00;;;17.20;99.80;;;;;;5056516;28;20041;-74
2022/09/02 07:06:10;;;;;;;3.22;1.80;;;16.80;99.90;;;;;;5055794;28;20049;-70
2022/09/02 07:08:42;;;;;;;2.50;1.70;;;16.60;99.90;;;;;;5055683;28;20055;-71
2022/09/02 07:11:16;;;;;;;4.07;1.83;;;16.40;99.90;;;;;;5054493;28;20045;-71
2022/09/02 07:13:42;;;;;;;5.25;2.00;;;16.40;99.90;;;;;;5055564;28;20060;-70
2022/09/02 07:16:07;;;;;;;4.50;1.77;;;16.40;99.90;;;;;;5055339;28;20040;-69
2022/09/02 07:18:34;;;;;;;3.22;1.70;;;16.40;99.90;;;;;;5055447;28;20066;-71
2022/09/02 07:21:00;;;;;;;3.38;1.88;;;16.40;99.90;;;;;;5056470;28;20056;-70
2022/09/02 07:23:26;;;;;;;4.07;2.05;;;16.40;99.90;;;;;;5055514;28;20057;-72
2022/09/02 07:25:54;;;;;;;7.97;1.90;;;16.40;99.90;;;;;;5054940;28;20058;-71
2022/09/02 07:28:19;;;;;;;3.42;1.67;;;16.40;99.90;;;;;;5055171;28;20044;-71
2022/09/02 07:30:45;;;;;;;2.47;1.40;;;16.50;99.90;;;;;;5055842;28;20045;-70
2022/09/02 07:33:12;;;;;;;3.78;1.45;;;16.50;99.90;;;;;;5056021;28;20120;-72
2022/09/02 07:35:40;;;;;;;5.13;1.67;;;16.40;99.90;;;;;;5037575;28;20118;-71
2022/09/02 07:38:07;;;;;;;2.85;1.40;;;16.60;99.90;;;;;;5055440;28;20080;-70
2022/09/02 07:40:35;;;;;;;2.95;1.63;;;16.70;99.90;;;;;;5055134;28;20033;-71
2022/09/02 07:43:02;;;;;;;3.17;1.70;;;16.70;99.90;;;;;;5049672;28;20449;-71
2022/09/02 07:45:29;;;;;;;11.52;1.90;;;16.70;99.90;;;;;;5035784;28;20090;-70
2022/09/02 07:47:54;;;;;;;3.80;1.58;;;16.80;99.90;;;;;;5048303;28;20053;-70
2022/09/02 07:50:20;;;;;;;3.90;1.50;;;16.90;99.90;;;;;;5038544;28;20140;-73
2022/09/02 07:52:46;;;;;;;4.05;1.55;;;16.90;99.90;;;;;;5054674;28;20122;-69
2022/09/02 07:55:11;;;;;;;5.78;1.73;;;17.00;99.90;;;;;;5055139;28;20049;-72
2022/09/02 07:57:38;;;;;;;4.53;1.50;;;17.20;99.90;;;;;;5049148;28;20098;-72
2022/09/02 08:00:06;;;;;;;3.53;1.50;;;17.20;99.90;;;;;;5054702;28;20104;-69
2022/09/02 08:02:33;;;;;;;3.38;1.63;;;17.20;99.90;;;;;;5054686;28;20506;-70
2022/09/02 08:04:58;;;;;;;3.88;1.50;;;17.30;99.90;;;;;;5055197;28;20049;-71
2022/09/02 08:07:24;;;;;;;5.07;1.90;;;17.40;99.90;;;;;;5049350;28;20064;-69
2022/09/02 08:09:51;;;;;;;2.90;1.55;;;17.40;99.90;;;;;;5054333;28;20055;-72
2022/09/02 08:12:17;;;;;;;2.67;1.65;;;17.50;99.90;;;;;;5037292;28;20049;-71
2022/09/02 08:14:42;;;;;;;3.30;1.50;;;17.60;99.90;;;;;;5054846;28;20048;-71
2022/09/02 08:17:08;;;;;;;4.25;1.70;;;17.70;99.90;;;;;;5055159;28;20114;-72
2022/09/02 08:19:34;;;;;;;6.05;1.80;;;17.70;99.40;;;;;;5055175;28;20461;-70
2022/09/02 08:22:05;;;;;;;4.47;1.50;;;17.80;99.30;;;;;;5054889;28;20051;-69
2022/09/02 08:24:31;;;;;;;6.15;1.50;;;17.90;99.50;;;;;;5054281;28;20049;-69
2022/09/02 08:26:59;;;;;;;4.15;1.48;;;18.00;99.70;;;;;;5054153;28;20067;-71
2022/09/02 08:29:24;;;;;;;3.28;1.35;;;18.10;99.50;;;;;;5037446;28;20060;-74
2022/09/02 08:31:50;;;;;;;3.42;1.60;;;18.30;99.80;;;;;;5054635;28;20360;-73
2022/09/02 08:34:16;;;;;;;2.53;1.38;;;18.40;99.40;;;;;;5053940;28;20049;-74
2022/09/02 08:36:42;;;;;;;5.30;1.42;;;18.50;98.60;;;;;;5052973;28;20049;-73
2022/09/02 08:39:08;;;;;;;14.52;1.60;;;18.70;98.20;;;;;;5042909;28;20087;-74
2022/09/02 08:42:01;;;;;;;10.52;1.58;;;19.20;98.30;;;;;;5054761;28;20045;-73
2022/09/02 08:44:28;;;;;;;2.65;1.35;;;20.10;97.30;;;;;;5054050;28;20061;-71
2022/09/02 08:46:59;;;;;;;2.72;1.20;;;20.90;96.30;;;;;;5054540;28;20072;-73
2022/09/02 08:49:32;;;;;;;4.53;1.65;;;21.50;95.80;;;;;;5054528;28;20091;-70
2022/09/02 08:52:01;;;;;;;3.38;1.20;;;21.60;94.80;;;;;;5054115;28;20049;-71
2022/09/02 08:54:42;;;;;;;4.80;1.33;;;21.50;94.60;;;;;;5054387;28;20049;-73
2022/09/02 08:57:09;;;;;;;5.78;3.15;;;21.40;94.40;;;;;;5054427;28;20041;-71
2022/09/02 08:59:36;;;;;;;5.00;1.33;;;21.40;94.60;;;;;;5054154;28;20124;-70
2022/09/02 09:02:24;;;;;;;2.47;1.25;;;21.40;94.90;;;;;;5053364;28;20476;-70
2022/09/02 09:05:14;;;;;;;3.92;1.40;;;21.10;94.90;;;;;;5054436;28;20063;-71
2022/09/02 09:08:06;;;;;;;5.15;1.70;;;20.80;94.00;;;;;;5054319;28;20132;-69
2022/09/02 09:10:59;;;;;;;2.35;1.10;;;20.80;94.30;;;;;;5054088;28;20041;-72
2022/09/02 09:13:46;;;;;;;5.20;1.40;;;20.70;94.20;;;;;;5053706;28;20119;-71
2022/09/02 09:16:33;;;;;;;3.75;1.20;;;20.90;94.90;;;;;;5053676;28;20438;-72
2022/09/02 09:19:21;;;;;;;4.75;1.20;;;21.10;94.80;;;;;;5053887;28;20420;-70
2022/09/02 09:21:46;;;;;;;5.22;1.50;;;21.50;93.50;;;;;;5054140;28;20091;-71
2022/09/02 09:24:35;;;;;;;5.03;1.25;;;22.00;93.70;;;;;;5053999;28;20095;-69
2022/09/02 09:27:07;;;;;;;6.25;1.75;;;22.50;93.30;;;;;;5053575;28;20490;-70
2022/09/02 09:29:35;;;;;;;5.22;1.38;;;22.90;92.50;;;;;;5036850;28;20041;-70
2022/09/02 09:32:01;;;;;;;6.97;1.58;;;23.50;92.60;;;;;;5035755;28;20389;-69
2022/09/02 09:34:52;;;;;;;6.85;1.40;;;23.90;91.50;;;;;;5036830;28;20103;-71
2022/09/02 09:37:33;;;;;;;5.82;1.40;;;24.00;91.30;;;;;;5057701;28;20052;-72
2022/09/02 09:39:59;;;;;;;2.75;1.17;;;23.50;91.10;;;;;;5057130;28;20373;-70
2022/09/02 09:42:36;;;;;;;5.78;1.42;;;23.10;91.50;;;;;;5057590;28;20055;-70
2022/09/02 09:45:30;;;;;;;6.57;1.60;;;22.50;91.80;;;;;;5040205;28;20091;-72
2022/09/02 09:48:15;;;;;;;4.53;1.60;;;22.30;91.70;;;;;;5057648;28;20048;-71
2022/09/02 09:50:41;;;;;;;4.35;1.65;;;22.00;92.40;;;;;;5057647;28;20389;-71
2022/09/02 09:53:31;;;;;;;8.30;1.52;;;21.90;92.50;;;;;;5057435;28;20049;-72
2022/09/02 09:56:06;;;;;;;4.82;1.60;;;21.90;92.60;;;;;;5057210;28;20045;-70
2022/09/02 09:58:42;;;;;;;4.57;1.58;;;22.00;92.80;;;;;;5057582;28;20041;-71
2022/09/02 10:01:16;;;;;;;2.85;1.05;;;22.00;92.80;;;;;;5056837;28;20075;-70
2022/09/02 10:04:06;;;;;;;9.32;1.52;;;22.00;91.90;;;;;;5057598;28;20060;-70
2022/09/02 10:06:31;;;;;;;2.75;1.30;;;22.10;92.50;;;;;;5057458;28;20041;-71
2022/09/02 10:09:27;;;;;;;3.35;1.30;;;22.20;92.10;;;;;;5057189;28;20048;-72
2022/09/02 10:11:56;;;;;;;3.35;1.10;;;22.20;92.30;;;;;;5052514;28;20532;-72
2022/09/02 10:14:22;;;;;;;4.53;1.63;;;22.40;92.60;;;;;;5057410;28;20433;-71
2022/09/02 10:17:05;;;;;;;4.75;1.20;;;22.50;92.00;;;;;;5039744;28;20052;-71
2022/09/02 10:19:42;;;;;;;9.10;2.08;;;22.60;91.60;;;;;;5038749;28;20136;-72
2022/09/02 10:22:36;;;;;;;3.00;1.20;;;22.70;90.90;;;;;;5038413;28;20168;-71
2022/09/02 10:25:10;;;;;;;2.63;1.45;;;22.70;91.20;;;;;;5038980;28;20056;-72
2022/09/02 10:28:20;;;;;;;3.13;1.45;;;22.70;91.20;;;;;;5056559;28;20088;-70
2022/09/02 10:31:22;;;;;;;3.05;1.20;;;22.80;91.30;;;;;;5010839;28;20072;-70
2022/09/02 10:33:57;;;;;;;2.75;1.02;;;22.90;90.60;;;;;;5058337;28;20055;-70
2022/09/02 10:36:28;;;;;;;4.45;1.42;;;23.00;90.20;;;;;;5038821;28;20055;-69
2022/09/02 10:39:02;;;;;;;2.35;1.30;;;23.00;90.40;;;;;;5057011;28;20053;-69
2022/09/02 10:41:41;;;;;;;4.53;1.40;;;22.90;89.40;;;;;;5056823;28;20090;-71
2022/09/02 10:44:13;;;;;;;4.50;1.10;;;23.00;90.30;;;;;;5056429;28;20059;-72
2022/09/02 10:47:06;;;;;;;3.53;0.90;;;23.10;89.90;;;;;;5054929;28;20071;-69
2022/09/02 10:49:32;;;;;;;;;;;23.20;89.90;;;;;;5047880;28;20397;-70
2022/09/02 10:52:37;;;;;;;2.08;1.20;;;23.20;87.70;;;;;;5056356;28;19921;-73
2022/09/02 10:55:41;;;;;;;2.35;1.00;;;23.20;88.30;;;;;;5036299;28;20057;-69
2022/09/02 10:58:19;;;;;;;3.67;1.15;;;23.20;90.00;;;;;;5036414;28;20080;-68
2022/09/02 11:00:50;;;;;;;4.20;1.55;;;23.30;88.00;;;;;;5035334;28;20049;-74
2022/09/02 11:03:34;;;;;;;3.42;1.35;;;23.30;87.30;;;;;;5037966;28;20442;-74
2022/09/02 11:06:32;;;;;;;5.78;1.20;;;23.40;88.80;;;;;;5055925;28;20045;-74
2022/09/02 11:09:06;;;;;;;4.10;1.10;;;23.40;88.00;;;;;;5050326;28;20370;-73
2022/09/02 11:11:41;;;;;;;3.58;1.33;;;23.50;88.40;;;;;;5055766;28;20080;-73
2022/09/02 11:14:33;;;;;;;5.55;1.35;;;23.70;88.00;;;;;;5056121;28;20041;-73
2022/09/02 11:17:22;;;;;;;3.40;1.10;;;23.70;87.00;;;;;;5055514;28;20440;-74
2022/09/02 11:19:57;;;;;;;3.10;1.17;;;23.90;86.70;;;;;;5055213;28;20045;-73
2022/09/02 11:22:32;;;;;;;3.85;1.15;;;23.90;88.20;;;;;;5038309;28;20041;-73
2022/09/02 11:25:20;;;;;;;2.97;1.10;;;24.00;86.50;;;;;;5056375;28;20045;-74
2022/09/02 11:28:10;;;;;;;6.53;1.13;;;24.10;87.50;;;;;;5055133;28;20106;-73
2022/09/02 11:31:09;;;;;;;3.05;1.10;;;24.00;86.20;;;;;;5055024;28;20045;-73
2022/09/02 11:33:44;;;;;;;7.05;1.10;;;24.00;83.40;;;;;;5015318;28;20092;-74
2022/09/02 11:36:10;;;;;;;3.65;1.00;;;24.00;85.50;;;;;;5039393;28;20373;-73
2022/09/02 11:38:42;;;;;;;5.28;1.10;;;24.00;84.90;;;;;;5055609;28;20065;-76
2022/09/02 11:41:29;;;;;;;2.30;1.00;;;24.20;84.70;;;;;;5054467;28;20087;-74
2022/09/02 11:44:04;;;;;;;2.05;0.98;;;24.30;85.80;;;;;;5055834;28;20045;-74
2022/09/02 11:47:07;;;;;;;3.45;0.90;;;24.40;84.50;;;;;;5055471;28;21121;-73
2022/09/02 11:49:36;;;;;;;2.75;1.10;;;24.50;84.90;;;;;;5055357;28;20076;-73
2022/09/02 11:52:20;;;;;;;2.83;1.13;;;24.70;84.80;;;;;;5054971;28;20072;-74
2022/09/02 11:55:02;;;;;;;5.85;1.10;;;24.80;83.70;;;;;;5046120;28;20041;-73
2022/09/02 11:57:28;;;;;;;2.95;0.90;;;24.80;82.20;;;;;;5054992;28;20048;-72
2022/09/02 11:59:56;;;;;;;2.95;0.95;;;24.90;83.70;;;;;;5054620;28;20037;-73
2022/09/02 12:02:42;;;;;;;3.40;1.08;;;25.00;83.50;;;;;;5054032;28;20111;-75
2022/09/02 12:05:28;;;;;;;2.50;0.90;;;25.10;83.10;;;;;;5055004;28;20106;-72
2022/09/02 12:07:55;;;;;;;8.30;1.17;;;25.30;83.10;;;;;;5054876;28;20369;-72
2022/09/02 12:10:43;;;;;;;3.05;0.77;;;25.40;81.40;;;;;;5037667;28;20049;-73
2022/09/02 12:13:31;;;;;;;3.50;0.95;;;25.40;80.50;;;;;;5054287;28;20461;-73
2022/09/02 12:16:12;;;;;;;1.83;0.80;;;25.30;81.50;;;;;;5054489;28;20084;-73
2022/09/02 12:18:41;;;;;;;4.25;0.90;;;25.20;80.10;;;;;;5054266;28;20491;-73
2022/09/02 12:21:15;;;;;;;3.58;1.10;;;25.10;79.50;;;;;;5054954;28;20048;-73
2022/09/02 12:23:58;;;;;;;4.35;1.15;;;25.10;80.20;;;;;;5037336;28;20048;-71
2022/09/02 12:26:49;;;;;;;4.25;0.93;;;24.90;80.00;;;;;;5020438;28;20077;-72
2022/09/02 12:29:17;;;;;;;8.50;3.30;;;25.00;80.20;;;;;;5054531;28;20045;-72
2022/09/02 12:31:53;;;;;;;2.70;1.00;;;25.00;81.30;;;;;;5020521;28;20056;-72
2022/09/02 12:34:19;;;;;;;8.07;1.40;;;25.20;81.50;;;;;;5054763;28;20064;-70
2022/09/02 12:37:05;;;;;;;14.95;1.98;;;25.30;81.60;;;;;;5054570;28;20131;-73
2022/09/02 12:39:31;;;;;;;3.08;1.00;;;25.30;78.60;;;;;;5054270;28;20060;-73
2022/09/02 12:41:56;;;;;;;2.75;1.00;;;25.10;79.60;;;;;;5054282;28;20045;-70
2022/09/02 12:44:40;;;;;;;4.47;1.08;;;25.20;81.10;;;;;;5055021;28;20110;-73
2022/09/02 12:47:18;;;;;;;1.50;0.90;;;25.10;79.60;;;;;;5054118;28;20048;-74
2022/09/02 12:49:59;;;;;;;3.20;1.10;;;25.20;80.10;;;;;;5053946;28;20127;-71
2022/09/02 12:52:33;;;;;;;1.30;0.80;;;25.00;79.40;;;;;;5054385;28;20044;-72
2022/09/02 12:55:17;;;;;;;3.00;1.05;;;25.10;80.30;;;;;;5054257;28;20041;-71
2022/09/02 12:57:45;;;;;;;5.47;1.48;;;25.20;80.50;;;;;;5053563;28;20128;-74
2022/09/02 13:00:24;;;;;;;2.88;1.00;;;25.30;80.30;;;;;;5053043;28;20059;-73
2022/09/02 13:02:55;;;;;;;2.20;1.00;;;25.20;78.90;;;;;;5020619;28;20053;-74
2022/09/02 13:05:51;;;;;;;5.53;1.20;;;25.20;78.80;;;;;;5054075;28;20047;-74
2022/09/02 13:08:54;;;;;;;3.85;1.20;;;25.30;79.40;;;;;;5053786;28;20049;-75
2022/09/02 13:11:57;;;;;;;4.40;1.00;;;25.30;79.60;;;;;;5039039;28;20076;-73